sensor_id;sensor_type;location;lat;lon;timestamp;P1;durP1;ratioP1;P2;durP2;ratioP2
34102;SDS011;20381;54.498;18.206;2023-05-10T00:00:19;6.80;;;3.52;;
34102;SDS011;20381;54.498;18.206;2023-05-10T00:02:48;7.75;;;3.70;;
34102;SDS011;20381;54.498;18.206;2023-05-10T00:05:14;6.25;;;3.80;;
34102;SDS011;20381;54.498;18.206;2023-05-10T00:07:41;8.35;;;3.83;;
34102;SDS011;20381;54.498;18.206;2023-05-10T00:10:09;5.05;;;3.58;;
34102;SDS011;20381;54.498;18.206;2023-05-10T00:12:36;5.10;;;3.50;;
34102;SDS011;20381;54.498;18.206;2023-05-10T00:15:03;5.40;;;3.13;;
34102;SDS011;20381;54.498;18.206;2023-05-10T00:17:30;5.33;;;3.72;;
34102;SDS011;20381;54.498;18.206;2023-05-10T00:19:56;7.80;;;3.70;;
34102;SDS011;20381;54.498;18.206;2023-05-10T00:22:23;7.87;;;4.03;;
34102;SDS011;20381;54.498;18.206;2023-05-10T00:24:49;6.55;;;3.45;;
34102;SDS011;20381;54.498;18.206;2023-05-10T00:27:15;7.00;;;4.22;;
34102;SDS011;20381;54.498;18.206;2023-05-10T00:29:41;6.22;;;3.70;;
34102;SDS011;20381;54.498;18.206;2023-05-10T00:32:08;5.10;;;3.22;;
34102;SDS011;20381;54.498;18.206;2023-05-10T00:34:34;5.58;;;3.83;;
34102;SDS011;20381;54.498;18.206;2023-05-10T00:37:01;8.63;;;3.90;;
34102;SDS011;20381;54.498;18.206;2023-05-10T00:39:27;6.97;;;3.83;;
34102;SDS011;20381;54.498;18.206;2023-05-10T00:41:54;6.43;;;3.70;;
34102;SDS011;20381;54.498;18.206;2023-05-10T00:44:20;8.75;;;3.62;;
34102;SDS011;20381;54.498;18.206;2023-05-10T00:46:47;8.80;;;3.95;;
34102;SDS011;20381;54.498;18.206;2023-05-10T00:49:14;5.97;;;3.58;;
34102;SDS011;20381;54.498;18.206;2023-05-10T00:51:41;5.90;;;3.72;;
34102;SDS011;20381;54.498;18.206;2023-05-10T00:54:09;7.15;;;3.27;;
34102;SDS011;20381;54.498;18.206;2023-05-10T00:56:40;9.23;;;3.55;;
34102;SDS011;20381;54.498;18.206;2023-05-10T00:59:10;5.08;;;3.30;;
34102;SDS011;20381;54.498;18.206;2023-05-10T01:01:36;5.47;;;3.50;;
34102;SDS011;20381;54.498;18.206;2023-05-10T01:04:03;7.50;;;3.55;;
34102;SDS011;20381;54.498;18.206;2023-05-10T01:06:30;4.65;;;2.87;;
34102;SDS011;20381;54.498;18.206;2023-05-10T01:08:56;8.33;;;3.47;;
34102;SDS011;20381;54.498;18.206;2023-05-10T01:11:22;6.87;;;3.47;;
34102;SDS011;20381;54.498;18.206;2023-05-10T01:13:50;5.80;;;3.62;;
34102;SDS011;20381;54.498;18.206;2023-05-10T01:16:18;4.53;;;3.37;;
34102;SDS011;20381;54.498;18.206;2023-05-10T01:18:45;6.92;;;3.58;;
34102;SDS011;20381;54.498;18.206;2023-05-10T01:35:15;7.22;;;3.40;;
34102;SDS011;20381;54.498;18.206;2023-05-10T01:37:49;5.50;;;3.70;;
34102;SDS011;20381;54.498;18.206;2023-05-10T01:40:30;4.42;;;3.55;;
34102;SDS011;20381;54.498;18.206;2023-05-10T01:43:03;6.65;;;3.95;;
34102;SDS011;20381;54.498;18.206;2023-05-10T01:45:34;8.23;;;3.70;;
34102;SDS011;20381;54.498;18.206;2023-05-10T01:48:06;5.58;;;3.65;;
34102;SDS011;20381;54.498;18.206;2023-05-10T01:50:35;11.48;;;3.80;;
34102;SDS011;20381;54.498;18.206;2023-05-10T01:53:06;6.53;;;3.27;;
34102;SDS011;20381;54.498;18.206;2023-05-10T01:55:35;4.90;;;3.92;;
34102;SDS011;20381;54.498;18.206;2023-05-10T01:58:06;5.15;;;3.45;;
34102;SDS011;20381;54.498;18.206;2023-05-10T02:00:34;6.55;;;3.65;;
34102;SDS011;20381;54.498;18.206;2023-05-10T02:03:04;6.35;;;3.87;;
34102;SDS011;20381;54.498;18.206;2023-05-10T02:05:31;5.87;;;4.05;;
34102;SDS011;20381;54.498;18.206;2023-05-10T02:08:01;13.62;;;4.30;;
34102;SDS011;20381;54.498;18.206;2023-05-10T02:10:30;6.00;;;3.80;;
34102;SDS011;20381;54.498;18.206;2023-05-10T02:12:58;5.60;;;3.98;;
34102;SDS011;20381;54.498;18.206;2023-05-10T02:15:25;10.63;;;4.60;;
34102;SDS011;20381;54.498;18.206;2023-05-10T02:17:54;8.18;;;3.87;;
34102;SDS011;20381;54.498;18.206;2023-05-10T02:20:22;8.23;;;3.75;;
34102;SDS011;20381;54.498;18.206;2023-05-10T02:22:51;6.20;;;4.40;;
34102;SDS011;20381;54.498;18.206;2023-05-10T02:25:21;10.48;;;3.70;;
34102;SDS011;20381;54.498;18.206;2023-05-10T02:27:49;7.65;;;3.77;;
34102;SDS011;20381;54.498;18.206;2023-05-10T02:30:17;5.53;;;3.85;;
34102;SDS011;20381;54.498;18.206;2023-05-10T02:32:45;10.18;;;4.05;;
34102;SDS011;20381;54.498;18.206;2023-05-10T02:35:14;7.67;;;4.00;;
34102;SDS011;20381;54.498;18.206;2023-05-10T02:37:42;8.78;;;3.92;;
34102;SDS011;20381;54.498;18.206;2023-05-10T02:40:11;5.95;;;3.27;;
34102;SDS011;20381;54.498;18.206;2023-05-10T02:42:41;7.37;;;3.95;;
34102;SDS011;20381;54.498;18.206;2023-05-10T02:45:10;7.92;;;3.98;;
34102;SDS011;20381;54.498;18.206;2023-05-10T02:47:38;5.70;;;3.80;;
34102;SDS011;20381;54.498;18.206;2023-05-10T02:50:05;6.60;;;4.00;;
34102;SDS011;20381;54.498;18.206;2023-05-10T02:52:39;11.10;;;4.20;;
34102;SDS011;20381;54.498;18.206;2023-05-10T02:55:14;5.50;;;4.03;;
34102;SDS011;20381;54.498;18.206;2023-05-10T02:57:46;8.05;;;4.10;;
34102;SDS011;20381;54.498;18.206;2023-05-10T03:00:15;12.43;;;4.55;;
34102;SDS011;20381;54.498;18.206;2023-05-10T03:02:42;11.33;;;4.37;;
34102;SDS011;20381;54.498;18.206;2023-05-10T03:05:12;7.42;;;4.30;;
34102;SDS011;20381;54.498;18.206;2023-05-10T03:07:36;8.85;;;4.28;;
34102;SDS011;20381;54.498;18.206;2023-05-10T03:10:03;6.50;;;4.15;;
34102;SDS011;20381;54.498;18.206;2023-05-10T03:15:42;10.85;;;4.70;;
34102;SDS011;20381;54.498;18.206;2023-05-10T03:18:37;10.48;;;5.12;;
34102;SDS011;20381;54.498;18.206;2023-05-10T03:21:04;18.95;;;5.15;;
34102;SDS011;20381;54.498;18.206;2023-05-10T03:23:35;9.08;;;4.72;;
34102;SDS011;20381;54.498;18.206;2023-05-10T03:26:07;10.53;;;4.17;;
34102;SDS011;20381;54.498;18.206;2023-05-10T03:28:34;13.75;;;4.87;;
34102;SDS011;20381;54.498;18.206;2023-05-10T03:31:01;11.93;;;4.10;;
34102;SDS011;20381;54.498;18.206;2023-05-10T03:33:31;7.00;;;4.55;;
34102;SDS011;20381;54.498;18.206;2023-05-10T03:35:58;13.40;;;4.92;;
34102;SDS011;20381;54.498;18.206;2023-05-10T03:38:24;10.32;;;4.50;;
34102;SDS011;20381;54.498;18.206;2023-05-10T03:40:50;7.45;;;4.78;;
34102;SDS011;20381;54.498;18.206;2023-05-10T03:43:16;6.78;;;4.25;;
34102;SDS011;20381;54.498;18.206;2023-05-10T03:45:43;7.35;;;4.40;;
34102;SDS011;20381;54.498;18.206;2023-05-10T03:48:09;8.65;;;4.45;;
34102;SDS011;20381;54.498;18.206;2023-05-10T03:50:35;6.92;;;4.80;;
34102;SDS011;20381;54.498;18.206;2023-05-10T03:53:01;12.65;;;5.00;;
34102;SDS011;20381;54.498;18.206;2023-05-10T03:55:28;9.13;;;5.00;;
34102;SDS011;20381;54.498;18.206;2023-05-10T03:57:55;7.75;;;4.72;;
34102;SDS011;20381;54.498;18.206;2023-05-10T04:00:21;12.13;;;5.42;;
34102;SDS011;20381;54.498;18.206;2023-05-10T04:02:47;7.40;;;4.85;;
34102;SDS011;20381;54.498;18.206;2023-05-10T04:05:15;8.58;;;4.90;;
34102;SDS011;20381;54.498;18.206;2023-05-10T04:07:42;6.35;;;5.15;;
34102;SDS011;20381;54.498;18.206;2023-05-10T04:10:10;10.53;;;5.75;;
34102;SDS011;20381;54.498;18.206;2023-05-10T04:12:37;9.03;;;5.42;;
34102;SDS011;20381;54.498;18.206;2023-05-10T04:15:04;16.80;;;5.55;;
34102;SDS011;20381;54.498;18.206;2023-05-10T04:17:32;12.93;;;6.12;;
34102;SDS011;20381;54.498;18.206;2023-05-10T04:19:58;17.77;;;6.50;;
34102;SDS011;20381;54.498;18.206;2023-05-10T04:22:24;14.33;;;6.08;;
34102;SDS011;20381;54.498;18.206;2023-05-10T04:24:51;13.93;;;5.65;;
34102;SDS011;20381;54.498;18.206;2023-05-10T04:27:17;10.23;;;5.58;;
34102;SDS011;20381;54.498;18.206;2023-05-10T04:29:43;13.60;;;6.40;;
34102;SDS011;20381;54.498;18.206;2023-05-10T04:32:09;12.82;;;5.92;;
34102;SDS011;20381;54.498;18.206;2023-05-10T04:34:37;15.93;;;6.47;;
34102;SDS011;20381;54.498;18.206;2023-05-10T04:37:03;8.40;;;5.90;;
34102;SDS011;20381;54.498;18.206;2023-05-10T04:39:30;8.70;;;5.42;;
34102;SDS011;20381;54.498;18.206;2023-05-10T04:41:56;17.42;;;6.17;;
34102;SDS011;20381;54.498;18.206;2023-05-10T04:44:23;11.63;;;5.00;;
34102;SDS011;20381;54.498;18.206;2023-05-10T04:46:49;11.08;;;5.37;;
34102;SDS011;20381;54.498;18.206;2023-05-10T04:49:15;17.02;;;5.80;;
34102;SDS011;20381;54.498;18.206;2023-05-10T04:51:42;7.17;;;4.00;;
34102;SDS011;20381;54.498;18.206;2023-05-10T04:54:08;9.98;;;4.50;;
34102;SDS011;20381;54.498;18.206;2023-05-10T04:56:34;8.63;;;4.22;;
34102;SDS011;20381;54.498;18.206;2023-05-10T04:59:01;14.05;;;4.87;;
34102;SDS011;20381;54.498;18.206;2023-05-10T05:01:28;9.03;;;4.15;;
34102;SDS011;20381;54.498;18.206;2023-05-10T05:03:55;12.25;;;5.17;;
34102;SDS011;20381;54.498;18.206;2023-05-10T05:06:21;10.90;;;4.90;;
34102;SDS011;20381;54.498;18.206;2023-05-10T05:08:48;8.05;;;4.00;;
34102;SDS011;20381;54.498;18.206;2023-05-10T05:11:15;22.95;;;4.90;;
34102;SDS011;20381;54.498;18.206;2023-05-10T05:13:46;9.25;;;4.05;;
34102;SDS011;20381;54.498;18.206;2023-05-10T05:16:10;10.63;;;3.87;;
34102;SDS011;20381;54.498;18.206;2023-05-10T05:18:36;12.10;;;3.60;;
34102;SDS011;20381;54.498;18.206;2023-05-10T05:21:14;4.87;;;3.37;;
34102;SDS011;20381;54.498;18.206;2023-05-10T05:23:39;9.33;;;4.65;;
34102;SDS011;20381;54.498;18.206;2023-05-10T05:26:05;7.08;;;3.70;;
34102;SDS011;20381;54.498;18.206;2023-05-10T05:28:31;9.15;;;4.70;;
34102;SDS011;20381;54.498;18.206;2023-05-10T05:31:00;11.63;;;3.90;;
34102;SDS011;20381;54.498;18.206;2023-05-10T05:33:26;6.47;;;3.40;;
34102;SDS011;20381;54.498;18.206;2023-05-10T05:35:53;11.03;;;3.72;;
34102;SDS011;20381;54.498;18.206;2023-05-10T05:38:19;6.87;;;3.40;;
34102;SDS011;20381;54.498;18.206;2023-05-10T05:40:45;6.03;;;3.42;;
34102;SDS011;20381;54.498;18.206;2023-05-10T05:43:11;8.53;;;3.77;;
34102;SDS011;20381;54.498;18.206;2023-05-10T05:45:39;6.03;;;3.60;;
34102;SDS011;20381;54.498;18.206;2023-05-10T05:48:05;11.50;;;3.45;;
34102;SDS011;20381;54.498;18.206;2023-05-10T05:50:31;9.25;;;3.50;;
34102;SDS011;20381;54.498;18.206;2023-05-10T05:52:58;9.43;;;3.67;;
34102;SDS011;20381;54.498;18.206;2023-05-10T05:55:24;8.05;;;3.12;;
34102;SDS011;20381;54.498;18.206;2023-05-10T05:57:52;11.22;;;4.62;;
34102;SDS011;20381;54.498;18.206;2023-05-10T06:00:18;8.63;;;4.00;;
34102;SDS011;20381;54.498;18.206;2023-05-10T06:02:45;11.33;;;4.47;;
34102;SDS011;20381;54.498;18.206;2023-05-10T06:05:11;9.60;;;3.47;;
34102;SDS011;20381;54.498;18.206;2023-05-10T06:07:39;6.58;;;3.05;;
34102;SDS011;20381;54.498;18.206;2023-05-10T06:10:08;11.65;;;4.05;;
34102;SDS011;20381;54.498;18.206;2023-05-10T06:12:34;7.95;;;3.22;;
34102;SDS011;20381;54.498;18.206;2023-05-10T06:15:01;7.97;;;3.22;;
34102;SDS011;20381;54.498;18.206;2023-05-10T06:17:28;13.50;;;3.52;;
34102;SDS011;20381;54.498;18.206;2023-05-10T06:19:54;9.85;;;4.05;;
34102;SDS011;20381;54.498;18.206;2023-05-10T06:22:22;11.60;;;3.47;;
34102;SDS011;20381;54.498;18.206;2023-05-10T06:24:48;26.95;;;6.20;;
34102;SDS011;20381;54.498;18.206;2023-05-10T06:27:15;6.33;;;2.87;;
34102;SDS011;20381;54.498;18.206;2023-05-10T06:29:41;10.25;;;3.02;;
34102;SDS011;20381;54.498;18.206;2023-05-10T06:32:07;6.95;;;3.08;;
34102;SDS011;20381;54.498;18.206;2023-05-10T06:34:34;5.72;;;2.83;;
34102;SDS011;20381;54.498;18.206;2023-05-10T06:37:01;17.27;;;3.95;;
34102;SDS011;20381;54.498;18.206;2023-05-10T06:39:29;6.75;;;3.37;;
34102;SDS011;20381;54.498;18.206;2023-05-10T06:41:55;12.15;;;3.08;;
34102;SDS011;20381;54.498;18.206;2023-05-10T06:44:21;21.02;;;4.85;;
34102;SDS011;20381;54.498;18.206;2023-05-10T06:46:48;6.25;;;2.67;;
34102;SDS011;20381;54.498;18.206;2023-05-10T06:51:41;14.10;;;3.25;;
34102;SDS011;20381;54.498;18.206;2023-05-10T06:54:07;6.85;;;3.35;;
34102;SDS011;20381;54.498;18.206;2023-05-10T06:56:33;9.33;;;3.05;;
34102;SDS011;20381;54.498;18.206;2023-05-10T06:59:00;20.00;;;3.60;;
34102;SDS011;20381;54.498;18.206;2023-05-10T07:01:26;10.70;;;2.83;;
34102;SDS011;20381;54.498;18.206;2023-05-10T07:03:53;9.70;;;3.90;;
34102;SDS011;20381;54.498;18.206;2023-05-10T07:06:19;10.82;;;3.40;;
34102;SDS011;20381;54.498;18.206;2023-05-10T07:08:52;13.20;;;3.20;;
34102;SDS011;20381;54.498;18.206;2023-05-10T07:11:15;7.37;;;2.92;;
34102;SDS011;20381;54.498;18.206;2023-05-10T07:13:42;15.10;;;3.50;;
34102;SDS011;20381;54.498;18.206;2023-05-10T07:16:09;13.95;;;3.15;;
34102;SDS011;20381;54.498;18.206;2023-05-10T07:18:36;6.37;;;2.65;;
34102;SDS011;20381;54.498;18.206;2023-05-10T07:21:03;8.03;;;3.30;;
34102;SDS011;20381;54.498;18.206;2023-05-10T07:23:29;11.60;;;3.02;;
34102;SDS011;20381;54.498;18.206;2023-05-10T07:25:56;10.48;;;3.30;;
34102;SDS011;20381;54.498;18.206;2023-05-10T07:28:23;10.32;;;3.25;;
34102;SDS011;20381;54.498;18.206;2023-05-10T07:30:52;10.93;;;3.35;;
34102;SDS011;20381;54.498;18.206;2023-05-10T07:33:18;16.10;;;3.12;;
34102;SDS011;20381;54.498;18.206;2023-05-10T07:35:45;11.18;;;3.50;;
34102;SDS011;20381;54.498;18.206;2023-05-10T07:38:11;12.80;;;2.92;;
34102;SDS011;20381;54.498;18.206;2023-05-10T07:40:38;8.00;;;2.75;;
34102;SDS011;20381;54.498;18.206;2023-05-10T07:43:05;13.80;;;2.67;;
34102;SDS011;20381;54.498;18.206;2023-05-10T07:45:31;14.15;;;3.08;;
34102;SDS011;20381;54.498;18.206;2023-05-10T07:50:24;20.00;;;3.58;;
34102;SDS011;20381;54.498;18.206;2023-05-10T07:52:50;15.28;;;2.83;;
34102;SDS011;20381;54.498;18.206;2023-05-10T07:57:44;7.92;;;2.70;;
34102;SDS011;20381;54.498;18.206;2023-05-10T08:00:12;8.23;;;3.00;;
34102;SDS011;20381;54.498;18.206;2023-05-10T08:02:39;10.15;;;2.92;;
34102;SDS011;20381;54.498;18.206;2023-05-10T08:05:07;5.78;;;2.60;;
34102;SDS011;20381;54.498;18.206;2023-05-10T08:07:33;37.53;;;3.30;;
34102;SDS011;20381;54.498;18.206;2023-05-10T08:10:00;26.73;;;3.42;;
34102;SDS011;20381;54.498;18.206;2023-05-10T08:12:27;13.50;;;2.58;;
34102;SDS011;20381;54.498;18.206;2023-05-10T08:14:53;27.22;;;3.12;;
34102;SDS011;20381;54.498;18.206;2023-05-10T08:17:19;10.78;;;2.95;;
34102;SDS011;20381;54.498;18.206;2023-05-10T08:19:48;20.08;;;3.70;;
34102;SDS011;20381;54.498;18.206;2023-05-10T08:22:14;19.62;;;3.25;;
34102;SDS011;20381;54.498;18.206;2023-05-10T08:24:41;17.98;;;3.02;;
34102;SDS011;20381;54.498;18.206;2023-05-10T08:27:07;27.42;;;3.25;;
34102;SDS011;20381;54.498;18.206;2023-05-10T08:29:34;19.02;;;2.80;;
34102;SDS011;20381;54.498;18.206;2023-05-10T08:32:00;10.30;;;2.37;;
34102;SDS011;20381;54.498;18.206;2023-05-10T08:34:27;39.90;;;4.37;;
34102;SDS011;20381;54.498;18.206;2023-05-10T08:36:53;33.73;;;3.45;;
34102;SDS011;20381;54.498;18.206;2023-05-10T08:39:20;26.50;;;3.95;;
34102;SDS011;20381;54.498;18.206;2023-05-10T08:41:46;21.45;;;2.50;;
34102;SDS011;20381;54.498;18.206;2023-05-10T08:44:13;16.02;;;3.10;;
34102;SDS011;20381;54.498;18.206;2023-05-10T08:46:42;17.55;;;3.17;;
34102;SDS011;20381;54.498;18.206;2023-05-10T08:49:13;22.48;;;3.65;;
34102;SDS011;20381;54.498;18.206;2023-05-10T08:51:42;22.58;;;2.65;;
34102;SDS011;20381;54.498;18.206;2023-05-10T08:54:11;23.87;;;3.52;;
34102;SDS011;20381;54.498;18.206;2023-05-10T08:56:38;19.37;;;2.72;;
34102;SDS011;20381;54.498;18.206;2023-05-10T08:59:05;7.70;;;2.47;;
34102;SDS011;20381;54.498;18.206;2023-05-10T09:01:32;9.48;;;1.98;;
34102;SDS011;20381;54.498;18.206;2023-05-10T09:04:02;20.30;;;2.98;;
34102;SDS011;20381;54.498;18.206;2023-05-10T09:06:30;19.15;;;2.90;;
34102;SDS011;20381;54.498;18.206;2023-05-10T09:08:58;30.72;;;3.67;;
34102;SDS011;20381;54.498;18.206;2023-05-10T09:11:28;18.30;;;2.80;;
34102;SDS011;20381;54.498;18.206;2023-05-10T09:13:56;14.55;;;3.00;;
34102;SDS011;20381;54.498;18.206;2023-05-10T09:16:23;26.23;;;3.47;;
34102;SDS011;20381;54.498;18.206;2023-05-10T09:21:15;18.85;;;3.30;;
34102;SDS011;20381;54.498;18.206;2023-05-10T09:23:45;9.15;;;2.83;;
34102;SDS011;20381;54.498;18.206;2023-05-10T09:26:12;15.50;;;2.37;;
34102;SDS011;20381;54.498;18.206;2023-05-10T09:31:46;11.60;;;2.45;;
34102;SDS011;20381;54.498;18.206;2023-05-10T09:34:17;15.65;;;2.52;;
34102;SDS011;20381;54.498;18.206;2023-05-10T09:36:56;12.37;;;2.90;;
34102;SDS011;20381;54.498;18.206;2023-05-10T09:39:32;15.30;;;2.25;;
34102;SDS011;20381;54.498;18.206;2023-05-10T09:42:05;16.60;;;2.77;;
34102;SDS011;20381;54.498;18.206;2023-05-10T09:44:33;11.12;;;2.22;;
34102;SDS011;20381;54.498;18.206;2023-05-10T09:47:00;12.55;;;2.60;;
34102;SDS011;20381;54.498;18.206;2023-05-10T09:49:29;8.60;;;2.22;;
34102;SDS011;20381;54.498;18.206;2023-05-10T09:52:05;11.73;;;2.15;;
34102;SDS011;20381;54.498;18.206;2023-05-10T09:54:33;9.25;;;2.17;;
34102;SDS011;20381;54.498;18.206;2023-05-10T09:57:02;10.30;;;2.22;;
34102;SDS011;20381;54.498;18.206;2023-05-10T09:59:28;13.45;;;2.50;;
34102;SDS011;20381;54.498;18.206;2023-05-10T10:01:56;17.25;;;2.55;;
34102;SDS011;20381;54.498;18.206;2023-05-10T10:04:24;10.45;;;2.55;;
34102;SDS011;20381;54.498;18.206;2023-05-10T10:07:01;11.83;;;2.40;;
34102;SDS011;20381;54.498;18.206;2023-05-10T10:09:29;10.82;;;2.35;;
34102;SDS011;20381;54.498;18.206;2023-05-10T10:11:56;19.65;;;2.40;;
34102;SDS011;20381;54.498;18.206;2023-05-10T10:14:23;11.80;;;2.50;;
34102;SDS011;20381;54.498;18.206;2023-05-10T10:16:50;10.55;;;2.55;;
34102;SDS011;20381;54.498;18.206;2023-05-10T10:19:17;10.60;;;2.45;;
34102;SDS011;20381;54.498;18.206;2023-05-10T10:21:46;11.20;;;2.42;;
34102;SDS011;20381;54.498;18.206;2023-05-10T10:24:13;6.17;;;2.00;;
34102;SDS011;20381;54.498;18.206;2023-05-10T10:26:39;20.62;;;3.00;;
34102;SDS011;20381;54.498;18.206;2023-05-10T10:29:24;6.85;;;2.17;;
34102;SDS011;20381;54.498;18.206;2023-05-10T10:32:06;11.73;;;2.37;;
34102;SDS011;20381;54.498;18.206;2023-05-10T10:34:38;21.52;;;2.58;;
34102;SDS011;20381;54.498;18.206;2023-05-10T10:37:06;12.00;;;2.60;;
34102;SDS011;20381;54.498;18.206;2023-05-10T10:44:36;13.53;;;2.45;;
34102;SDS011;20381;54.498;18.206;2023-05-10T10:49:44;9.45;;;2.25;;
34102;SDS011;20381;54.498;18.206;2023-05-10T10:55:01;10.35;;;1.95;;
34102;SDS011;20381;54.498;18.206;2023-05-10T11:00:21;17.15;;;2.77;;
34102;SDS011;20381;54.498;18.206;2023-05-10T11:05:43;19.60;;;3.33;;
34102;SDS011;20381;54.498;18.206;2023-05-10T11:08:19;11.43;;;2.67;;
34102;SDS011;20381;54.498;18.206;2023-05-10T11:11:01;9.18;;;2.58;;
34102;SDS011;20381;54.498;18.206;2023-05-10T11:13:46;9.23;;;2.00;;
34102;SDS011;20381;54.498;18.206;2023-05-10T11:19:07;11.85;;;2.42;;
34102;SDS011;20381;54.498;18.206;2023-05-10T11:21:33;9.70;;;2.65;;
34102;SDS011;20381;54.498;18.206;2023-05-10T11:24:00;11.97;;;2.62;;
34102;SDS011;20381;54.498;18.206;2023-05-10T11:26:33;9.83;;;2.37;;
34102;SDS011;20381;54.498;18.206;2023-05-10T11:29:01;6.45;;;2.20;;
34102;SDS011;20381;54.498;18.206;2023-05-10T11:31:29;7.70;;;2.45;;
34102;SDS011;20381;54.498;18.206;2023-05-10T11:33:56;13.62;;;2.50;;
34102;SDS011;20381;54.498;18.206;2023-05-10T11:36:25;19.77;;;2.62;;
34102;SDS011;20381;54.498;18.206;2023-05-10T11:38:55;12.40;;;2.30;;
34102;SDS011;20381;54.498;18.206;2023-05-10T11:41:23;16.55;;;2.65;;
34102;SDS011;20381;54.498;18.206;2023-05-10T11:43:56;6.92;;;1.77;;
34102;SDS011;20381;54.498;18.206;2023-05-10T11:46:21;14.45;;;2.98;;
34102;SDS011;20381;54.498;18.206;2023-05-10T11:48:58;19.23;;;2.70;;
34102;SDS011;20381;54.498;18.206;2023-05-10T11:51:21;13.03;;;2.90;;
34102;SDS011;20381;54.498;18.206;2023-05-10T11:53:49;11.73;;;2.22;;
34102;SDS011;20381;54.498;18.206;2023-05-10T11:56:17;16.48;;;2.60;;
34102;SDS011;20381;54.498;18.206;2023-05-10T11:58:44;24.32;;;2.87;;
34102;SDS011;20381;54.498;18.206;2023-05-10T12:01:12;11.03;;;2.45;;
34102;SDS011;20381;54.498;18.206;2023-05-10T12:03:40;11.97;;;2.67;;
34102;SDS011;20381;54.498;18.206;2023-05-10T12:06:07;14.65;;;2.33;;
34102;SDS011;20381;54.498;18.206;2023-05-10T12:13:30;12.45;;;2.42;;
34102;SDS011;20381;54.498;18.206;2023-05-10T12:15:57;4.83;;;2.37;;
34102;SDS011;20381;54.498;18.206;2023-05-10T12:18:24;8.13;;;2.25;;
34102;SDS011;20381;54.498;18.206;2023-05-10T12:20:54;15.08;;;2.30;;
34102;SDS011;20381;54.498;18.206;2023-05-10T12:23:22;12.30;;;2.20;;
34102;SDS011;20381;54.498;18.206;2023-05-10T12:25:48;9.27;;;2.07;;
34102;SDS011;20381;54.498;18.206;2023-05-10T12:28:14;7.90;;;2.87;;
34102;SDS011;20381;54.498;18.206;2023-05-10T12:30:43;31.25;;;2.80;;
34102;SDS011;20381;54.498;18.206;2023-05-10T12:33:10;8.20;;;2.70;;
34102;SDS011;20381;54.498;18.206;2023-05-10T12:35:51;17.30;;;2.67;;
34102;SDS011;20381;54.498;18.206;2023-05-10T12:41:08;11.23;;;3.13;;
34102;SDS011;20381;54.498;18.206;2023-05-10T12:43:36;9.83;;;2.47;;
34102;SDS011;20381;54.498;18.206;2023-05-10T12:46:04;8.23;;;2.33;;
34102;SDS011;20381;54.498;18.206;2023-05-10T12:48:35;15.78;;;2.45;;
34102;SDS011;20381;54.498;18.206;2023-05-10T12:51:03;47.53;;;3.10;;
34102;SDS011;20381;54.498;18.206;2023-05-10T12:53:33;15.38;;;3.35;;
34102;SDS011;20381;54.498;18.206;2023-05-10T12:55:59;8.05;;;2.95;;
34102;SDS011;20381;54.498;18.206;2023-05-10T12:58:25;5.62;;;2.15;;
34102;SDS011;20381;54.498;18.206;2023-05-10T13:00:52;12.05;;;2.52;;
34102;SDS011;20381;54.498;18.206;2023-05-10T13:03:19;18.65;;;2.90;;
34102;SDS011;20381;54.498;18.206;2023-05-10T13:05:45;42.67;;;5.28;;
34102;SDS011;20381;54.498;18.206;2023-05-10T13:08:24;18.73;;;2.95;;
34102;SDS011;20381;54.498;18.206;2023-05-10T13:10:51;12.58;;;2.27;;
34102;SDS011;20381;54.498;18.206;2023-05-10T13:13:21;16.77;;;2.42;;
34102;SDS011;20381;54.498;18.206;2023-05-10T13:15:51;20.82;;;2.80;;
34102;SDS011;20381;54.498;18.206;2023-05-10T13:20:53;6.42;;;2.35;;
34102;SDS011;20381;54.498;18.206;2023-05-10T13:25:59;14.15;;;2.58;;
34102;SDS011;20381;54.498;18.206;2023-05-10T13:28:32;23.55;;;2.62;;
34102;SDS011;20381;54.498;18.206;2023-05-10T13:31:15;8.75;;;2.20;;
34102;SDS011;20381;54.498;18.206;2023-05-10T13:33:49;10.45;;;2.05;;
34102;SDS011;20381;54.498;18.206;2023-05-10T13:36:14;33.33;;;2.90;;
34102;SDS011;20381;54.498;18.206;2023-05-10T13:38:44;13.70;;;2.47;;
34102;SDS011;20381;54.498;18.206;2023-05-10T13:41:15;10.63;;;2.25;;
34102;SDS011;20381;54.498;18.206;2023-05-10T13:43:48;8.85;;;2.10;;
34102;SDS011;20381;54.498;18.206;2023-05-10T13:46:18;6.80;;;2.55;;
34102;SDS011;20381;54.498;18.206;2023-05-10T13:48:50;12.33;;;2.80;;
34102;SDS011;20381;54.498;18.206;2023-05-10T13:51:27;8.55;;;2.22;;
34102;SDS011;20381;54.498;18.206;2023-05-10T13:53:53;9.65;;;2.15;;
34102;SDS011;20381;54.498;18.206;2023-05-10T13:56:19;9.88;;;2.77;;
34102;SDS011;20381;54.498;18.206;2023-05-10T13:58:51;20.23;;;2.50;;
34102;SDS011;20381;54.498;18.206;2023-05-10T14:01:14;10.95;;;2.80;;
34102;SDS011;20381;54.498;18.206;2023-05-10T14:03:40;12.65;;;2.50;;
34102;SDS011;20381;54.498;18.206;2023-05-10T14:06:07;11.33;;;2.75;;
34102;SDS011;20381;54.498;18.206;2023-05-10T14:08:35;8.95;;;2.65;;
34102;SDS011;20381;54.498;18.206;2023-05-10T14:11:02;12.95;;;2.45;;
34102;SDS011;20381;54.498;18.206;2023-05-10T14:13:28;9.78;;;2.30;;
34102;SDS011;20381;54.498;18.206;2023-05-10T14:15:54;31.87;;;3.42;;
34102;SDS011;20381;54.498;18.206;2023-05-10T14:18:21;8.43;;;2.35;;
34102;SDS011;20381;54.498;18.206;2023-05-10T14:20:47;7.42;;;2.00;;
34102;SDS011;20381;54.498;18.206;2023-05-10T14:23:13;15.05;;;2.27;;
34102;SDS011;20381;54.498;18.206;2023-05-10T14:25:40;14.27;;;2.50;;
34102;SDS011;20381;54.498;18.206;2023-05-10T14:28:09;7.33;;;2.27;;
34102;SDS011;20381;54.498;18.206;2023-05-10T14:30:36;10.70;;;2.50;;
34102;SDS011;20381;54.498;18.206;2023-05-10T14:33:02;6.78;;;2.25;;
34102;SDS011;20381;54.498;18.206;2023-05-10T14:35:29;8.00;;;2.20;;
34102;SDS011;20381;54.498;18.206;2023-05-10T14:37:57;9.68;;;2.35;;
34102;SDS011;20381;54.498;18.206;2023-05-10T14:40:24;10.60;;;2.40;;
34102;SDS011;20381;54.498;18.206;2023-05-10T14:42:50;9.93;;;2.52;;
34102;SDS011;20381;54.498;18.206;2023-05-10T14:45:18;8.90;;;3.08;;
34102;SDS011;20381;54.498;18.206;2023-05-10T14:47:45;13.75;;;2.25;;
34102;SDS011;20381;54.498;18.206;2023-05-10T14:50:12;9.58;;;2.30;;
34102;SDS011;20381;54.498;18.206;2023-05-10T14:52:40;5.35;;;2.10;;
34102;SDS011;20381;54.498;18.206;2023-05-10T14:55:07;5.27;;;2.17;;
34102;SDS011;20381;54.498;18.206;2023-05-10T14:57:34;17.87;;;3.20;;
34102;SDS011;20381;54.498;18.206;2023-05-10T15:00:01;13.30;;;2.70;;
34102;SDS011;20381;54.498;18.206;2023-05-10T15:02:28;10.78;;;2.45;;
34102;SDS011;20381;54.498;18.206;2023-05-10T15:04:57;10.23;;;3.00;;
34102;SDS011;20381;54.498;18.206;2023-05-10T15:07:28;9.93;;;2.35;;
34102;SDS011;20381;54.498;18.206;2023-05-10T15:09:56;10.88;;;2.20;;
34102;SDS011;20381;54.498;18.206;2023-05-10T15:12:24;10.28;;;1.98;;
34102;SDS011;20381;54.498;18.206;2023-05-10T15:14:51;7.78;;;2.10;;
34102;SDS011;20381;54.498;18.206;2023-05-10T15:17:26;9.43;;;2.20;;
34102;SDS011;20381;54.498;18.206;2023-05-10T15:19:47;12.80;;;2.47;;
34102;SDS011;20381;54.498;18.206;2023-05-10T15:22:14;11.20;;;2.77;;
34102;SDS011;20381;54.498;18.206;2023-05-10T15:24:41;13.28;;;2.60;;
34102;SDS011;20381;54.498;18.206;2023-05-10T15:27:11;5.97;;;2.65;;
34102;SDS011;20381;54.498;18.206;2023-05-10T15:29:36;11.57;;;3.12;;
34102;SDS011;20381;54.498;18.206;2023-05-10T15:32:03;9.08;;;2.60;;
34102;SDS011;20381;54.498;18.206;2023-05-10T15:34:31;5.08;;;1.70;;